sensor_id;sensor_type;location;lat;lon;timestamp;P1;durP1;ratioP1;P2;durP2;ratioP2
62848;SDS011;48941;49.516;8.286;2022-08-19T00:01:42;21.92;;;16.88;;
62848;SDS011;48941;49.516;8.286;2022-08-19T00:04:18;21.02;;;16.80;;
62848;SDS011;48941;49.516;8.286;2022-08-19T00:06:48;20.73;;;16.42;;
62848;SDS011;48941;49.516;8.286;2022-08-19T00:09:18;22.42;;;16.73;;
62848;SDS011;48941;49.516;8.286;2022-08-19T00:11:47;21.33;;;16.20;;
62848;SDS011;48941;49.516;8.286;2022-08-19T00:14:16;21.45;;;16.60;;
62848;SDS011;48941;49.516;8.286;2022-08-19T00:16:45;21.30;;;16.85;;
62848;SDS011;48941;49.516;8.286;2022-08-19T00:19:14;19.63;;;16.50;;
62848;SDS011;48941;49.516;8.286;2022-08-19T00:21:43;20.08;;;16.20;;
62848;SDS011;48941;49.516;8.286;2022-08-19T00:24:11;20.55;;;15.95;;
62848;SDS011;48941;49.516;8.286;2022-08-19T00:26:42;21.63;;;16.70;;
62848;SDS011;48941;49.516;8.286;2022-08-19T00:29:12;19.40;;;15.98;;
62848;SDS011;48941;49.516;8.286;2022-08-19T00:31:41;20.52;;;16.77;;
62848;SDS011;48941;49.516;8.286;2022-08-19T00:34:10;20.17;;;16.75;;
62848;SDS011;48941;49.516;8.286;2022-08-19T00:36:38;19.80;;;16.65;;
62848;SDS011;48941;49.516;8.286;2022-08-19T00:39:07;21.30;;;16.25;;
62848;SDS011;48941;49.516;8.286;2022-08-19T00:41:36;18.48;;;15.95;;
62848;SDS011;48941;49.516;8.286;2022-08-19T00:44:07;20.58;;;17.10;;
62848;SDS011;48941;49.516;8.286;2022-08-19T00:46:38;23.27;;;16.83;;
62848;SDS011;48941;49.516;8.286;2022-08-19T00:49:09;21.15;;;16.45;;
62848;SDS011;48941;49.516;8.286;2022-08-19T00:51:41;18.02;;;15.98;;
62848;SDS011;48941;49.516;8.286;2022-08-19T00:54:12;21.10;;;16.60;;
62848;SDS011;48941;49.516;8.286;2022-08-19T00:56:41;21.45;;;16.10;;
62848;SDS011;48941;49.516;8.286;2022-08-19T00:59:10;19.92;;;16.17;;
62848;SDS011;48941;49.516;8.286;2022-08-19T01:02:00;19.05;;;16.95;;
62848;SDS011;48941;49.516;8.286;2022-08-19T01:04:28;21.52;;;16.50;;
62848;SDS011;48941;49.516;8.286;2022-08-19T01:06:56;27.77;;;16.90;;
62848;SDS011;48941;49.516;8.286;2022-08-19T01:09:25;18.23;;;15.88;;
62848;SDS011;48941;49.516;8.286;2022-08-19T01:11:53;20.17;;;16.40;;
62848;SDS011;48941;49.516;8.286;2022-08-19T01:14:24;23.80;;;16.00;;
62848;SDS011;48941;49.516;8.286;2022-08-19T01:16:52;19.42;;;16.42;;
62848;SDS011;48941;49.516;8.286;2022-08-19T01:19:24;19.40;;;16.70;;
62848;SDS011;48941;49.516;8.286;2022-08-19T01:22:10;20.02;;;16.00;;
62848;SDS011;48941;49.516;8.286;2022-08-19T01:24:43;21.65;;;16.65;;
62848;SDS011;48941;49.516;8.286;2022-08-19T01:27:15;22.67;;;17.08;;
62848;SDS011;48941;49.516;8.286;2022-08-19T01:29:43;19.17;;;16.23;;
62848;SDS011;48941;49.516;8.286;2022-08-19T01:32:13;22.67;;;16.10;;
62848;SDS011;48941;49.516;8.286;2022-08-19T01:34:59;23.30;;;16.83;;
62848;SDS011;48941;49.516;8.286;2022-08-19T01:37:28;21.75;;;16.95;;
62848;SDS011;48941;49.516;8.286;2022-08-19T01:39:58;21.08;;;17.15;;
62848;SDS011;48941;49.516;8.286;2022-08-19T01:42:26;20.48;;;16.60;;
62848;SDS011;48941;49.516;8.286;2022-08-19T01:44:56;21.63;;;16.98;;
62848;SDS011;48941;49.516;8.286;2022-08-19T01:47:24;20.23;;;16.60;;
62848;SDS011;48941;49.516;8.286;2022-08-19T01:49:52;20.98;;;17.65;;
62848;SDS011;48941;49.516;8.286;2022-08-19T01:52:20;25.40;;;16.88;;
62848;SDS011;48941;49.516;8.286;2022-08-19T01:54:47;21.83;;;17.45;;
62848;SDS011;48941;49.516;8.286;2022-08-19T01:57:17;21.88;;;17.48;;
62848;SDS011;48941;49.516;8.286;2022-08-19T01:59:44;22.92;;;17.77;;
62848;SDS011;48941;49.516;8.286;2022-08-19T02:02:12;20.20;;;16.92;;
62848;SDS011;48941;49.516;8.286;2022-08-19T02:04:40;21.85;;;17.75;;
62848;SDS011;48941;49.516;8.286;2022-08-19T02:07:08;19.58;;;16.95;;
62848;SDS011;48941;49.516;8.286;2022-08-19T02:09:36;24.55;;;17.67;;
62848;SDS011;48941;49.516;8.286;2022-08-19T02:12:04;22.42;;;17.10;;
62848;SDS011;48941;49.516;8.286;2022-08-19T02:14:36;22.80;;;17.73;;
62848;SDS011;48941;49.516;8.286;2022-08-19T02:17:04;20.80;;;17.40;;
62848;SDS011;48941;49.516;8.286;2022-08-19T02:19:32;23.05;;;17.27;;
62848;SDS011;48941;49.516;8.286;2022-08-19T02:22:00;23.20;;;17.38;;
62848;SDS011;48941;49.516;8.286;2022-08-19T02:24:28;23.95;;;17.20;;
62848;SDS011;48941;49.516;8.286;2022-08-19T02:26:56;23.17;;;16.73;;
62848;SDS011;48941;49.516;8.286;2022-08-19T02:29:24;23.88;;;17.23;;
62848;SDS011;48941;49.516;8.286;2022-08-19T02:31:54;22.75;;;16.70;;
62848;SDS011;48941;49.516;8.286;2022-08-19T02:34:22;22.63;;;16.80;;
62848;SDS011;48941;49.516;8.286;2022-08-19T02:36:51;20.60;;;16.92;;
62848;SDS011;48941;49.516;8.286;2022-08-19T02:39:18;22.95;;;17.00;;
62848;SDS011;48941;49.516;8.286;2022-08-19T02:41:45;25.83;;;17.58;;
62848;SDS011;48941;49.516;8.286;2022-08-19T02:44:13;20.85;;;17.50;;
62848;SDS011;48941;49.516;8.286;2022-08-19T02:46:58;21.73;;;16.98;;
62848;SDS011;48941;49.516;8.286;2022-08-19T02:49:25;20.25;;;15.82;;
62848;SDS011;48941;49.516;8.286;2022-08-19T02:51:53;19.85;;;16.88;;
62848;SDS011;48941;49.516;8.286;2022-08-19T02:54:21;20.48;;;16.60;;
62848;SDS011;48941;49.516;8.286;2022-08-19T02:56:49;18.40;;;16.33;;
62848;SDS011;48941;49.516;8.286;2022-08-19T02:59:17;19.48;;;16.60;;
62848;SDS011;48941;49.516;8.286;2022-08-19T03:01:48;21.80;;;16.85;;
62848;SDS011;48941;49.516;8.286;2022-08-19T03:04:18;20.83;;;16.90;;
62848;SDS011;48941;49.516;8.286;2022-08-19T03:06:46;21.17;;;17.02;;
62848;SDS011;48941;49.516;8.286;2022-08-19T03:09:15;22.52;;;17.23;;
62848;SDS011;48941;49.516;8.286;2022-08-19T03:11:43;22.98;;;15.65;;
62848;SDS011;48941;49.516;8.286;2022-08-19T03:14:13;19.20;;;15.65;;
62848;SDS011;48941;49.516;8.286;2022-08-19T03:16:42;22.10;;;16.70;;
62848;SDS011;48941;49.516;8.286;2022-08-19T03:19:12;20.50;;;16.10;;
62848;SDS011;48941;49.516;8.286;2022-08-19T03:21:43;20.60;;;16.17;;
62848;SDS011;48941;49.516;8.286;2022-08-19T03:24:13;19.85;;;16.23;;
62848;SDS011;48941;49.516;8.286;2022-08-19T03:26:43;19.13;;;16.27;;
62848;SDS011;48941;49.516;8.286;2022-08-19T03:29:13;19.70;;;16.17;;
62848;SDS011;48941;49.516;8.286;2022-08-19T03:34:24;19.48;;;15.57;;
62848;SDS011;48941;49.516;8.286;2022-08-19T03:36:55;19.15;;;15.63;;
62848;SDS011;48941;49.516;8.286;2022-08-19T03:39:25;20.17;;;15.77;;
62848;SDS011;48941;49.516;8.286;2022-08-19T03:41:53;20.33;;;15.30;;
62848;SDS011;48941;49.516;8.286;2022-08-19T03:44:43;17.52;;;15.63;;
62848;SDS011;48941;49.516;8.286;2022-08-19T03:47:11;23.50;;;16.27;;
62848;SDS011;48941;49.516;8.286;2022-08-19T03:49:43;17.38;;;15.10;;
62848;SDS011;48941;49.516;8.286;2022-08-19T03:52:12;19.00;;;15.38;;
62848;SDS011;48941;49.516;8.286;2022-08-19T03:54:40;16.50;;;14.70;;
62848;SDS011;48941;49.516;8.286;2022-08-19T03:57:08;19.17;;;14.45;;
62848;SDS011;48941;49.516;8.286;2022-08-19T03:59:37;21.73;;;15.20;;
62848;SDS011;48941;49.516;8.286;2022-08-19T04:02:07;19.63;;;15.00;;
62848;SDS011;48941;49.516;8.286;2022-08-19T04:04:37;17.10;;;14.98;;
62848;SDS011;48941;49.516;8.286;2022-08-19T04:07:06;17.23;;;14.57;;
62848;SDS011;48941;49.516;8.286;2022-08-19T04:09:35;20.40;;;15.23;;
62848;SDS011;48941;49.516;8.286;2022-08-19T04:12:04;19.52;;;14.82;;
62848;SDS011;48941;49.516;8.286;2022-08-19T04:14:33;17.60;;;14.75;;
62848;SDS011;48941;49.516;8.286;2022-08-19T04:17:02;17.50;;;14.38;;
62848;SDS011;48941;49.516;8.286;2022-08-19T04:19:32;17.23;;;14.52;;
62848;SDS011;48941;49.516;8.286;2022-08-19T04:22:00;17.60;;;14.43;;
62848;SDS011;48941;49.516;8.286;2022-08-19T04:24:30;18.15;;;14.80;;
62848;SDS011;48941;49.516;8.286;2022-08-19T04:27:00;16.50;;;14.50;;
62848;SDS011;48941;49.516;8.286;2022-08-19T04:29:29;18.35;;;14.25;;
62848;SDS011;48941;49.516;8.286;2022-08-19T04:31:57;16.98;;;14.70;;
62848;SDS011;48941;49.516;8.286;2022-08-19T04:34:34;18.85;;;14.25;;
62848;SDS011;48941;49.516;8.286;2022-08-19T04:37:23;20.40;;;14.55;;
62848;SDS011;48941;49.516;8.286;2022-08-19T04:39:50;17.88;;;14.90;;
62848;SDS011;48941;49.516;8.286;2022-08-19T04:42:37;16.40;;;13.57;;
62848;SDS011;48941;49.516;8.286;2022-08-19T04:45:09;18.17;;;14.43;;
62848;SDS011;48941;49.516;8.286;2022-08-19T04:47:38;17.50;;;15.07;;
62848;SDS011;48941;49.516;8.286;2022-08-19T04:50:23;18.77;;;14.57;;
62848;SDS011;48941;49.516;8.286;2022-08-19T04:52:51;17.60;;;14.10;;
62848;SDS011;48941;49.516;8.286;2022-08-19T04:55:19;18.63;;;14.40;;
62848;SDS011;48941;49.516;8.286;2022-08-19T04:57:49;16.88;;;14.10;;
62848;SDS011;48941;49.516;8.286;2022-08-19T05:00:17;17.25;;;13.68;;
62848;SDS011;48941;49.516;8.286;2022-08-19T05:02:44;18.20;;;14.43;;
62848;SDS011;48941;49.516;8.286;2022-08-19T05:05:12;17.17;;;14.18;;
62848;SDS011;48941;49.516;8.286;2022-08-19T05:07:40;18.23;;;14.30;;
62848;SDS011;48941;49.516;8.286;2022-08-19T05:10:08;16.95;;;13.80;;
62848;SDS011;48941;49.516;8.286;2022-08-19T05:12:37;18.15;;;13.35;;
62848;SDS011;48941;49.516;8.286;2022-08-19T05:15:07;15.63;;;13.18;;
62848;SDS011;48941;49.516;8.286;2022-08-19T05:17:35;16.85;;;13.30;;
62848;SDS011;48941;49.516;8.286;2022-08-19T05:20:05;15.13;;;12.20;;
62848;SDS011;48941;49.516;8.286;2022-08-19T05:22:50;19.48;;;13.13;;
62848;SDS011;48941;49.516;8.286;2022-08-19T05:25:19;15.95;;;13.52;;
62848;SDS011;48941;49.516;8.286;2022-08-19T05:27:48;13.90;;;12.43;;
62848;SDS011;48941;49.516;8.286;2022-08-19T05:30:17;15.75;;;12.93;;
62848;SDS011;48941;49.516;8.286;2022-08-19T05:33:05;15.70;;;12.65;;
62848;SDS011;48941;49.516;8.286;2022-08-19T05:35:35;16.83;;;12.40;;
62848;SDS011;48941;49.516;8.286;2022-08-19T05:38:03;18.25;;;11.70;;
62848;SDS011;48941;49.516;8.286;2022-08-19T05:40:31;16.08;;;12.07;;
62848;SDS011;48941;49.516;8.286;2022-08-19T05:43:02;15.65;;;12.05;;
62848;SDS011;48941;49.516;8.286;2022-08-19T05:45:32;15.23;;;12.27;;
62848;SDS011;48941;49.516;8.286;2022-08-19T05:48:05;16.20;;;11.45;;
62848;SDS011;48941;49.516;8.286;2022-08-19T05:50:32;14.27;;;12.48;;
62848;SDS011;48941;49.516;8.286;2022-08-19T05:53:02;18.90;;;11.70;;
62848;SDS011;48941;49.516;8.286;2022-08-19T05:55:30;14.30;;;11.05;;
62848;SDS011;48941;49.516;8.286;2022-08-19T05:57:58;16.17;;;11.73;;
62848;SDS011;48941;49.516;8.286;2022-08-19T06:00:27;14.68;;;11.23;;
62848;SDS011;48941;49.516;8.286;2022-08-19T06:02:58;18.05;;;11.68;;
62848;SDS011;48941;49.516;8.286;2022-08-19T06:05:38;14.73;;;11.00;;
62848;SDS011;48941;49.516;8.286;2022-08-19T06:08:17;15.73;;;11.50;;
62848;SDS011;48941;49.516;8.286;2022-08-19T06:11:11;14.15;;;10.60;;
62848;SDS011;48941;49.516;8.286;2022-08-19T06:13:41;14.95;;;10.63;;
62848;SDS011;48941;49.516;8.286;2022-08-19T06:16:09;13.80;;;10.57;;
62848;SDS011;48941;49.516;8.286;2022-08-19T06:18:38;16.23;;;10.43;;
62848;SDS011;48941;49.516;8.286;2022-08-19T06:21:06;11.70;;;10.23;;
62848;SDS011;48941;49.516;8.286;2022-08-19T06:23:34;11.73;;;10.45;;
62848;SDS011;48941;49.516;8.286;2022-08-19T06:26:01;16.45;;;10.50;;
62848;SDS011;48941;49.516;8.286;2022-08-19T06:28:30;14.18;;;9.95;;
62848;SDS011;48941;49.516;8.286;2022-08-19T06:30:59;17.70;;;10.18;;
62848;SDS011;48941;49.516;8.286;2022-08-19T06:33:32;13.80;;;9.55;;
62848;SDS011;48941;49.516;8.286;2022-08-19T06:36:02;13.68;;;10.50;;
62848;SDS011;48941;49.516;8.286;2022-08-19T06:38:30;11.82;;;9.00;;
62848;SDS011;48941;49.516;8.286;2022-08-19T06:41:00;12.30;;;9.63;;
62848;SDS011;48941;49.516;8.286;2022-08-19T06:43:33;12.02;;;9.68;;
62848;SDS011;48941;49.516;8.286;2022-08-19T06:46:09;11.55;;;8.88;;
62848;SDS011;48941;49.516;8.286;2022-08-19T06:48:40;15.02;;;9.52;;
62848;SDS011;48941;49.516;8.286;2022-08-19T06:51:12;11.07;;;8.93;;
62848;SDS011;48941;49.516;8.286;2022-08-19T06:53:45;12.93;;;8.63;;
62848;SDS011;48941;49.516;8.286;2022-08-19T06:56:14;13.85;;;8.75;;
62848;SDS011;48941;49.516;8.286;2022-08-19T06:58:43;11.05;;;7.95;;
62848;SDS011;48941;49.516;8.286;2022-08-19T07:01:12;14.43;;;8.40;;
62848;SDS011;48941;49.516;8.286;2022-08-19T07:03:40;10.88;;;8.43;;
62848;SDS011;48941;49.516;8.286;2022-08-19T07:06:09;12.48;;;8.77;;
62848;SDS011;48941;49.516;8.286;2022-08-19T07:09:00;14.15;;;9.80;;
62848;SDS011;48941;49.516;8.286;2022-08-19T07:11:28;14.70;;;8.68;;
62848;SDS011;48941;49.516;8.286;2022-08-19T07:13:59;15.38;;;8.98;;
62848;SDS011;48941;49.516;8.286;2022-08-19T07:16:28;11.27;;;9.00;;
62848;SDS011;48941;49.516;8.286;2022-08-19T07:18:56;12.85;;;9.30;;
62848;SDS011;48941;49.516;8.286;2022-08-19T07:21:37;12.05;;;9.25;;
62848;SDS011;48941;49.516;8.286;2022-08-19T07:24:07;14.27;;;8.65;;
62848;SDS011;48941;49.516;8.286;2022-08-19T07:26:37;9.82;;;8.65;;
62848;SDS011;48941;49.516;8.286;2022-08-19T07:29:07;10.02;;;9.02;;
62848;SDS011;48941;49.516;8.286;2022-08-19T07:31:36;13.38;;;9.85;;
62848;SDS011;48941;49.516;8.286;2022-08-19T07:34:04;12.50;;;8.77;;
62848;SDS011;48941;49.516;8.286;2022-08-19T07:36:34;13.30;;;9.20;;
62848;SDS011;48941;49.516;8.286;2022-08-19T07:39:04;10.57;;;8.60;;
62848;SDS011;48941;49.516;8.286;2022-08-19T07:41:35;12.68;;;8.55;;
62848;SDS011;48941;49.516;8.286;2022-08-19T07:44:03;15.85;;;8.60;;
62848;SDS011;48941;49.516;8.286;2022-08-19T07:46:33;15.27;;;9.93;;
62848;SDS011;48941;49.516;8.286;2022-08-19T07:49:03;15.25;;;9.00;;
62848;SDS011;48941;49.516;8.286;2022-08-19T07:51:32;17.58;;;9.90;;
62848;SDS011;48941;49.516;8.286;2022-08-19T07:54:02;32.17;;;10.10;;
62848;SDS011;48941;49.516;8.286;2022-08-19T07:56:31;13.80;;;8.77;;
62848;SDS011;48941;49.516;8.286;2022-08-19T07:58:59;14.32;;;8.07;;
62848;SDS011;48941;49.516;8.286;2022-08-19T08:01:27;15.40;;;8.35;;
62848;SDS011;48941;49.516;8.286;2022-08-19T08:03:56;16.23;;;7.90;;
62848;SDS011;48941;49.516;8.286;2022-08-19T08:06:42;13.77;;;7.60;;
62848;SDS011;48941;49.516;8.286;2022-08-19T08:09:29;11.60;;;7.63;;
62848;SDS011;48941;49.516;8.286;2022-08-19T08:12:03;13.43;;;8.50;;
62848;SDS011;48941;49.516;8.286;2022-08-19T08:14:54;9.52;;;7.60;;
62848;SDS011;48941;49.516;8.286;2022-08-19T08:17:25;11.05;;;7.60;;
62848;SDS011;48941;49.516;8.286;2022-08-19T08:20:14;11.77;;;7.43;;
62848;SDS011;48941;49.516;8.286;2022-08-19T08:22:42;14.60;;;7.15;;
62848;SDS011;48941;49.516;8.286;2022-08-19T08:25:28;13.15;;;8.48;;
62848;SDS011;48941;49.516;8.286;2022-08-19T08:28:00;15.65;;;7.40;;
62848;SDS011;48941;49.516;8.286;2022-08-19T08:30:30;10.77;;;7.60;;
62848;SDS011;48941;49.516;8.286;2022-08-19T08:32:59;13.43;;;8.60;;
62848;SDS011;48941;49.516;8.286;2022-08-19T08:35:28;10.82;;;8.13;;
62848;SDS011;48941;49.516;8.286;2022-08-19T08:37:56;13.02;;;8.45;;
62848;SDS011;48941;49.516;8.286;2022-08-19T08:40:26;12.48;;;8.68;;
62848;SDS011;48941;49.516;8.286;2022-08-19T08:42:57;13.13;;;8.80;;
62848;SDS011;48941;49.516;8.286;2022-08-19T08:45:38;12.15;;;8.43;;
62848;SDS011;48941;49.516;8.286;2022-08-19T08:48:20;13.15;;;7.95;;
62848;SDS011;48941;49.516;8.286;2022-08-19T08:50:53;12.70;;;8.73;;
62848;SDS011;48941;49.516;8.286;2022-08-19T08:53:24;11.88;;;8.43;;
62848;SDS011;48941;49.516;8.286;2022-08-19T08:55:57;8.77;;;7.10;;
62848;SDS011;48941;49.516;8.286;2022-08-19T08:58:31;9.65;;;8.32;;
62848;SDS011;48941;49.516;8.286;2022-08-19T09:01:11;9.95;;;7.43;;
62848;SDS011;48941;49.516;8.286;2022-08-19T09:03:40;10.73;;;7.80;;
62848;SDS011;48941;49.516;8.286;2022-08-19T09:06:12;9.55;;;7.00;;
62848;SDS011;48941;49.516;8.286;2022-08-19T09:08:47;15.18;;;9.57;;
62848;SDS011;48941;49.516;8.286;2022-08-19T09:11:28;14.00;;;9.23;;
62848;SDS011;48941;49.516;8.286;2022-08-19T09:14:11;14.32;;;9.68;;
62848;SDS011;48941;49.516;8.286;2022-08-19T09:17:08;12.60;;;8.80;;
62848;SDS011;48941;49.516;8.286;2022-08-19T09:19:46;10.77;;;8.20;;
62848;SDS011;48941;49.516;8.286;2022-08-19T09:24:52;11.70;;;8.73;;
62848;SDS011;48941;49.516;8.286;2022-08-19T09:27:22;9.60;;;8.27;;
62848;SDS011;48941;49.516;8.286;2022-08-19T09:30:09;11.35;;;8.38;;
62848;SDS011;48941;49.516;8.286;2022-08-19T09:32:42;8.73;;;7.80;;
62848;SDS011;48941;49.516;8.286;2022-08-19T09:35:12;10.48;;;7.35;;
62848;SDS011;48941;49.516;8.286;2022-08-19T09:37:41;10.82;;;8.30;;
62848;SDS011;48941;49.516;8.286;2022-08-19T09:40:23;16.08;;;8.52;;
62848;SDS011;48941;49.516;8.286;2022-08-19T09:42:51;17.45;;;8.38;;
62848;SDS011;48941;49.516;8.286;2022-08-19T09:45:20;11.98;;;7.88;;
62848;SDS011;48941;49.516;8.286;2022-08-19T09:47:51;11.63;;;8.32;;
62848;SDS011;48941;49.516;8.286;2022-08-19T09:50:21;12.77;;;7.30;;
62848;SDS011;48941;49.516;8.286;2022-08-19T09:52:50;10.40;;;8.27;;
62848;SDS011;48941;49.516;8.286;2022-08-19T09:55:23;9.52;;;8.45;;
62848;SDS011;48941;49.516;8.286;2022-08-19T09:57:58;11.07;;;7.82;;
62848;SDS011;48941;49.516;8.286;2022-08-19T10:00:27;10.93;;;7.75;;
62848;SDS011;48941;49.516;8.286;2022-08-19T10:02:58;8.32;;;7.53;;
62848;SDS011;48941;49.516;8.286;2022-08-19T10:05:26;9.30;;;7.28;;
62848;SDS011;48941;49.516;8.286;2022-08-19T10:08:14;13.63;;;8.90;;
62848;SDS011;48941;49.516;8.286;2022-08-19T10:10:42;10.77;;;7.57;;
62848;SDS011;48941;49.516;8.286;2022-08-19T10:13:12;10.90;;;8.30;;
62848;SDS011;48941;49.516;8.286;2022-08-19T10:15:41;11.10;;;8.68;;
62848;SDS011;48941;49.516;8.286;2022-08-19T10:18:14;8.38;;;7.50;;
62848;SDS011;48941;49.516;8.286;2022-08-19T10:20:44;10.48;;;8.70;;
62848;SDS011;48941;49.516;8.286;2022-08-19T10:23:18;9.35;;;8.35;;
62848;SDS011;48941;49.516;8.286;2022-08-19T10:25:47;12.48;;;8.55;;
62848;SDS011;48941;49.516;8.286;2022-08-19T10:28:15;9.40;;;7.72;;
62848;SDS011;48941;49.516;8.286;2022-08-19T10:30:45;9.77;;;8.13;;
62848;SDS011;48941;49.516;8.286;2022-08-19T10:33:15;14.50;;;9.20;;
62848;SDS011;48941;49.516;8.286;2022-08-19T10:36:03;12.95;;;8.40;;
62848;SDS011;48941;49.516;8.286;2022-08-19T10:38:34;10.83;;;7.93;;
62848;SDS011;48941;49.516;8.286;2022-08-19T10:41:12;9.13;;;7.68;;
62848;SDS011;48941;49.516;8.286;2022-08-19T10:43:42;9.57;;;7.95;;
62848;SDS011;48941;49.516;8.286;2022-08-19T10:46:11;11.32;;;7.85;;
62848;SDS011;48941;49.516;8.286;2022-08-19T10:48:43;7.80;;;7.05;;
62848;SDS011;48941;49.516;8.286;2022-08-19T10:51:11;10.00;;;7.22;;
62848;SDS011;48941;49.516;8.286;2022-08-19T10:53:57;11.98;;;7.55;;
62848;SDS011;48941;49.516;8.286;2022-08-19T10:56:26;8.00;;;7.20;;
62848;SDS011;48941;49.516;8.286;2022-08-19T10:59:11;8.43;;;6.57;;
62848;SDS011;48941;49.516;8.286;2022-08-19T11:01:41;6.78;;;5.97;;
62848;SDS011;48941;49.516;8.286;2022-08-19T11:04:11;6.70;;;6.00;;
62848;SDS011;48941;49.516;8.286;2022-08-19T11:06:44;8.88;;;6.10;;
62848;SDS011;48941;49.516;8.286;2022-08-19T11:09:14;9.85;;;5.20;;
62848;SDS011;48941;49.516;8.286;2022-08-19T11:11:43;8.15;;;5.30;;
62848;SDS011;48941;49.516;8.286;2022-08-19T11:14:12;6.38;;;5.30;;
62848;SDS011;48941;49.516;8.286;2022-08-19T11:16:42;7.18;;;5.30;;
62848;SDS011;48941;49.516;8.286;2022-08-19T11:19:12;7.07;;;5.60;;
62848;SDS011;48941;49.516;8.286;2022-08-19T11:21:42;5.63;;;5.13;;
62848;SDS011;48941;49.516;8.286;2022-08-19T11:24:15;7.00;;;5.50;;
62848;SDS011;48941;49.516;8.286;2022-08-19T11:29:15;6.68;;;5.18;;
62848;SDS011;48941;49.516;8.286;2022-08-19T11:31:47;7.28;;;4.80;;
62848;SDS011;48941;49.516;8.286;2022-08-19T11:34:18;5.00;;;4.47;;
62848;SDS011;48941;49.516;8.286;2022-08-19T11:36:47;6.25;;;4.63;;
62848;SDS011;48941;49.516;8.286;2022-08-19T11:39:16;7.22;;;4.80;;
62848;SDS011;48941;49.516;8.286;2022-08-19T11:41:46;7.00;;;4.75;;
62848;SDS011;48941;49.516;8.286;2022-08-19T11:44:14;8.35;;;4.80;;
62848;SDS011;48941;49.516;8.286;2022-08-19T11:46:43;5.20;;;4.70;;
62848;SDS011;48941;49.516;8.286;2022-08-19T11:49:13;5.63;;;5.13;;
62848;SDS011;48941;49.516;8.286;2022-08-19T11:51:43;6.43;;;5.28;;
62848;SDS011;48941;49.516;8.286;2022-08-19T11:54:11;12.88;;;5.40;;
62848;SDS011;48941;49.516;8.286;2022-08-19T11:56:40;9.52;;;4.97;;
62848;SDS011;48941;49.516;8.286;2022-08-19T11:59:22;5.50;;;4.57;;
62848;SDS011;48941;49.516;8.286;2022-08-19T12:01:52;5.47;;;4.97;;
62848;SDS011;48941;49.516;8.286;2022-08-19T12:04:22;5.28;;;4.70;;
62848;SDS011;48941;49.516;8.286;2022-08-19T12:06:50;5.38;;;4.50;;
62848;SDS011;48941;49.516;8.286;2022-08-19T12:09:19;12.80;;;5.30;;
62848;SDS011;48941;49.516;8.286;2022-08-19T12:11:48;7.53;;;5.20;;
62848;SDS011;48941;49.516;8.286;2022-08-19T12:14:17;8.68;;;5.10;;
62848;SDS011;48941;49.516;8.286;2022-08-19T12:16:46;5.32;;;4.82;;
62848;SDS011;48941;49.516;8.286;2022-08-19T12:19:18;6.85;;;4.78;;
62848;SDS011;48941;49.516;8.286;2022-08-19T12:21:48;8.70;;;4.55;;
62848;SDS011;48941;49.516;8.286;2022-08-19T12:24:16;4.90;;;4.40;;
62848;SDS011;48941;49.516;8.286;2022-08-19T12:26:49;6.03;;;4.43;;
62848;SDS011;48941;49.516;8.286;2022-08-19T12:29:19;4.93;;;4.43;;
62848;SDS011;48941;49.516;8.286;2022-08-19T12:31:50;9.65;;;4.80;;
62848;SDS011;48941;49.516;8.286;2022-08-19T12:34:19;5.30;;;4.30;;
62848;SDS011;48941;49.516;8.286;2022-08-19T12:36:47;7.18;;;5.00;;
62848;SDS011;48941;49.516;8.286;2022-08-19T12:39:16;8.30;;;4.40;;
62848;SDS011;48941;49.516;8.286;2022-08-19T12:41:44;8.90;;;4.30;;
62848;SDS011;48941;49.516;8.286;2022-08-19T12:44:20;6.82;;;4.03;;
62848;SDS011;48941;49.516;8.286;2022-08-19T12:46:58;6.55;;;4.32;;
62848;SDS011;48941;49.516;8.286;2022-08-19T12:49:29;4.78;;;4.32;;
62848;SDS011;48941;49.516;8.286;2022-08-19T12:52:17;7.10;;;4.10;;
62848;SDS011;48941;49.516;8.286;2022-08-19T12:54:48;4.83;;;4.40;;
62848;SDS011;48941;49.516;8.286;2022-08-19T12:57:20;5.95;;;4.38;;
62848;SDS011;48941;49.516;8.286;2022-08-19T12:59:57;5.90;;;4.50;;
62848;SDS011;48941;49.516;8.286;2022-08-19T13:02:27;8.57;;;4.50;;
62848;SDS011;48941;49.516;8.286;2022-08-19T13:04:55;6.72;;;3.85;;
62848;SDS011;48941;49.516;8.286;2022-08-19T13:07:23;15.85;;;4.45;;
62848;SDS011;48941;49.516;8.286;2022-08-19T13:09:52;5.90;;;4.00;;
62848;SDS011;48941;49.516;8.286;2022-08-19T13:12:20;6.18;;;3.92;;
62848;SDS011;48941;49.516;8.286;2022-08-19T13:14:50;5.32;;;3.88;;
62848;SDS011;48941;49.516;8.286;2022-08-19T13:17:18;7.72;;;3.72;;
62848;SDS011;48941;49.516;8.286;2022-08-19T13:19:48;4.82;;;3.75;;
62848;SDS011;48941;49.516;8.286;2022-08-19T13:22:16;6.57;;;3.90;;
62848;SDS011;48941;49.516;8.286;2022-08-19T13:24:44;5.05;;;3.60;;
62848;SDS011;48941;49.516;8.286;2022-08-19T13:27:12;7.15;;;4.05;;
62848;SDS011;48941;49.516;8.286;2022-08-19T13:29:41;7.15;;;4.45;;
62848;SDS011;48941;49.516;8.286;2022-08-19T13:32:28;4.93;;;4.10;;
62848;SDS011;48941;49.516;8.286;2022-08-19T13:35:15;5.95;;;4.20;;
62848;SDS011;48941;49.516;8.286;2022-08-19T13:37:44;7.05;;;4.30;;
62848;SDS011;48941;49.516;8.286;2022-08-19T13:40:13;9.57;;;4.53;;
62848;SDS011;48941;49.516;8.286;2022-08-19T13:42:45;5.35;;;4.18;;
62848;SDS011;48941;49.516;8.286;2022-08-19T13:45:14;5.95;;;4.20;;
62848;SDS011;48941;49.516;8.286;2022-08-19T13:47:45;4.80;;;4.03;;
62848;SDS011;48941;49.516;8.286;2022-08-19T13:50:15;5.45;;;3.70;;
62848;SDS011;48941;49.516;8.286;2022-08-19T13:52:46;4.20;;;3.90;;
62848;SDS011;48941;49.516;8.286;2022-08-19T13:55:15;4.75;;;3.80;;
62848;SDS011;48941;49.516;8.286;2022-08-19T13:57:50;8.45;;;3.67;;
62848;SDS011;48941;49.516;8.286;2022-08-19T14:00:19;4.30;;;3.70;;
62848;SDS011;48941;49.516;8.286;2022-08-19T14:02:49;4.50;;;4.10;;
62848;SDS011;48941;49.516;8.286;2022-08-19T14:05:20;5.63;;;3.70;;
62848;SDS011;48941;49.516;8.286;2022-08-19T14:07:48;6.10;;;3.65;;
62848;SDS011;48941;49.516;8.286;2022-08-19T14:10:16;7.00;;;3.70;;
62848;SDS011;48941;49.516;8.286;2022-08-19T14:12:45;6.82;;;3.88;;
62848;SDS011;48941;49.516;8.286;2022-08-19T14:15:13;4.53;;;4.13;;
62848;SDS011;48941;49.516;8.286;2022-08-19T14:17:43;4.35;;;3.95;;
62848;SDS011;48941;49.516;8.286;2022-08-19T14:20:15;5.57;;;4.00;;
62848;SDS011;48941;49.516;8.286;2022-08-19T14:22:45;4.30;;;3.90;;
62848;SDS011;48941;49.516;8.286;2022-08-19T14:25:16;6.78;;;3.80;;
62848;SDS011;48941;49.516;8.286;2022-08-19T14:27:46;4.10;;;3.77;;
62848;SDS011;48941;49.516;8.286;2022-08-19T14:30:16;6.05;;;3.97;;
62848;SDS011;48941;49.516;8.286;2022-08-19T14:32:45;4.38;;;3.75;;
62848;SDS011;48941;49.516;8.286;2022-08-19T14:35:14;7.18;;;4.07;;
62848;SDS011;48941;49.516;8.286;2022-08-19T14:37:43;9.38;;;4.00;;
62848;SDS011;48941;49.516;8.286;2022-08-19T14:40:14;4.57;;;4.03;;
62848;SDS011;48941;49.516;8.286;2022-08-19T14:42:44;4.65;;;4.07;;
62848;SDS011;48941;49.516;8.286;2022-08-19T14:45:12;4.60;;;3.90;;
62848;SDS011;48941;49.516;8.286;2022-08-19T14:47:39;4.07;;;3.78;;
62848;SDS011;48941;49.516;8.286;2022-08-19T14:50:10;4.63;;;4.00;;
62848;SDS011;48941;49.516;8.286;2022-08-19T14:52:45;5.07;;;4.18;;
62848;SDS011;48941;49.516;8.286;2022-08-19T14:55:14;5.00;;;3.72;;
62848;SDS011;48941;49.516;8.286;2022-08-19T14:57:44;7.18;;;4.30;;
62848;SDS011;48941;49.516;8.286;2022-08-19T15:00:13;9.13;;;4.10;;
62848;SDS011;48941;49.516;8.286;2022-08-19T15:02:42;5.35;;;4.15;;
62848;SDS011;48941;49.516;8.286;2022-08-19T15:05:10;7.95;;;4.40;;